Time;durP1;ratioP1;P1;durP2;ratioP2;P2;SDS_P1;SDS_P2;PMS_P1;PMS_P2;Temp;Humidity;BMP_temperature;BMP_pressure;BME280_temperature;BME280_humidity;BME280_pressure;Samples;Min_cycle;Max_cycle;Signal;HPM_P1;HPM_P2
2024/03/21 00:00:14;;;;;;;12.70;7.47;;;;;;;;;;5067292;28;20028;-52
2024/03/21 00:02:40;;;;;;;12.65;7.35;;;;;;;;;;5066877;28;20020;-52
2024/03/21 00:05:07;;;;;;;12.95;7.50;;;;;;;;;;5071131;28;20028;-51
2024/03/21 00:07:34;;;;;;;13.27;7.82;;;;;;;;;;5087063;28;20104;-50
2024/03/21 00:10:00;;;;;;;13.43;8.10;;;;;;;;;;5068563;28;20023;-51
2024/03/21 00:12:26;;;;;;;12.55;7.72;;;;;;;;;;5086356;28;20024;-48
2024/03/21 00:14:52;;;;;;;12.15;7.07;;;;;;;;;;5086848;28;20024;-49
2024/03/21 00:17:18;;;;;;;12.50;7.30;;;;;;;;;;5051991;28;20081;-53
2024/03/21 00:19:44;;;;;;;13.20;7.80;;;;;;;;;;5070021;28;20032;-54
2024/03/21 00:22:10;;;;;;;12.70;7.40;;;;;;;;;;5065837;28;20659;-52
2024/03/21 00:24:38;;;;;;;12.82;7.45;;;;;;;;;;5063503;28;20035;-51
2024/03/21 00:27:04;;;;;;;12.55;7.30;;;;;;;;;;5086368;28;20089;-51
2024/03/21 00:29:30;;;;;;;12.43;7.30;;;;;;;;;;5086407;28;20024;-54
2024/03/21 00:31:56;;;;;;;12.95;7.60;;;;;;;;;;5086652;28;20032;-55
2024/03/21 00:34:22;;;;;;;12.70;7.40;;;;;;;;;;5089218;28;20077;-54
2024/03/21 00:36:48;;;;;;;13.40;8.10;;;;;;;;;;5090343;28;20091;-49
2024/03/21 00:39:19;;;;;;;13.45;8.23;;;;;;;;;;5089623;28;20030;-53
2024/03/21 00:41:46;;;;;;;13.43;8.30;;;;;;;;;;5089792;28;20031;-53
2024/03/21 00:44:12;;;;;;;13.73;8.95;;;;;;;;;;5089997;28;20028;-53
2024/03/21 00:46:38;;;;;;;13.98;9.35;;;;;;;;;;5090322;28;20032;-53
2024/03/21 00:49:05;;;;;;;13.43;8.30;;;;;;;;;;5090152;28;20028;-52
2024/03/21 00:51:31;;;;;;;13.50;8.30;;;;;;;;;;5090030;28;20114;-50
2024/03/21 00:53:58;;;;;;;13.55;8.43;;;;;;;;;;5089963;28;20051;-51
2024/03/21 00:56:24;;;;;;;13.25;7.97;;;;;;;;;;5090431;28;20028;-51
2024/03/21 00:58:50;;;;;;;12.85;7.50;;;;;;;;;;5090302;28;20026;-52
2024/03/21 01:01:16;;;;;;;13.15;7.78;;;;;;;;;;5090214;28;20024;-53
2024/03/21 01:03:42;;;;;;;13.32;7.90;;;;;;;;;;5089732;28;20081;-53
2024/03/21 01:06:08;;;;;;;13.55;8.55;;;;;;;;;;5090534;28;20366;-53
2024/03/21 01:08:34;;;;;;;13.13;7.85;;;;;;;;;;5090555;28;20028;-51
2024/03/21 01:11:01;;;;;;;13.43;8.13;;;;;;;;;;5090123;28;20072;-54
2024/03/21 01:13:27;;;;;;;13.32;8.00;;;;;;;;;;5090228;28;20619;-52
2024/03/21 01:15:53;;;;;;;13.43;8.13;;;;;;;;;;5090546;28;20035;-54
2024/03/21 01:18:25;;;;;;;13.43;8.00;;;;;;;;;;5090454;28;20032;-52
2024/03/21 01:20:51;;;;;;;13.35;7.88;;;;;;;;;;5090150;28;20055;-54
2024/03/21 01:23:17;;;;;;;13.18;7.70;;;;;;;;;;5071258;28;20448;-49
2024/03/21 01:25:43;;;;;;;13.18;7.70;;;;;;;;;;5090017;28;20107;-56
2024/03/21 01:28:10;;;;;;;13.35;7.97;;;;;;;;;;5090053;28;20024;-53
2024/03/21 01:30:36;;;;;;;13.40;8.07;;;;;;;;;;5089885;28;20420;-51
2024/03/21 01:33:03;;;;;;;13.40;8.07;;;;;;;;;;5088926;28;20089;-51
2024/03/21 01:35:30;;;;;;;13.75;8.70;;;;;;;;;;5092960;28;20016;-55
2024/03/21 01:37:56;;;;;;;14.10;9.77;;;;;;;;;;5093934;28;20050;-52
2024/03/21 01:40:22;;;;;;;19.38;12.70;;;;;;;;;;5075541;28;20024;-52
2024/03/21 01:42:52;;;;;;;13.48;8.30;;;;;;;;;;5074147;28;20081;-49
2024/03/21 01:45:18;;;;;;;17.23;9.77;;;;;;;;;;5093472;28;20028;-51
2024/03/21 01:47:44;;;;;;;15.90;11.13;;;;;;;;;;5093533;28;20030;-50
2024/03/21 01:50:10;;;;;;;15.43;10.20;;;;;;;;;;5093390;28;20024;-55
2024/03/21 01:52:37;;;;;;;14.65;9.68;;;;;;;;;;5092855;28;20089;-53
2024/03/21 01:55:06;;;;;;;13.50;8.45;;;;;;;;;;5093387;28;20697;-50
2024/03/21 01:57:33;;;;;;;17.35;8.68;;;;;;;;;;5092250;28;20016;-53
2024/03/21 01:59:59;;;;;;;15.52;8.85;;;;;;;;;;5093401;28;20052;-49
2024/03/21 02:02:28;;;;;;;14.90;12.25;;;;;;;;;;5093046;28;20016;-52
2024/03/21 02:04:54;;;;;;;14.32;8.85;;;;;;;;;;5093459;28;20439;-52
2024/03/21 02:07:21;;;;;;;13.35;8.00;;;;;;;;;;5093050;28;20553;-53
2024/03/21 02:09:50;;;;;;;13.38;8.00;;;;;;;;;;5093087;28;20142;-49
2024/03/21 02:12:35;;;;;;;13.38;8.00;;;;;;;;;;5092714;28;20028;-52
2024/03/21 02:15:01;;;;;;;13.27;8.02;;;;;;;;;;5093205;28;20085;-51
2024/03/21 02:17:27;;;;;;;13.45;8.30;;;;;;;;;;5092970;28;20076;-50
2024/03/21 02:19:53;;;;;;;13.45;8.20;;;;;;;;;;5092857;28;20028;-54
2024/03/21 02:22:37;;;;;;;13.30;7.97;;;;;;;;;;5074504;28;20020;-51
2024/03/21 02:25:04;;;;;;;13.35;8.20;;;;;;;;;;5093079;28;20020;-51
2024/03/21 02:27:30;;;;;;;13.38;8.00;;;;;;;;;;5093046;28;20028;-50
2024/03/21 02:29:57;;;;;;;13.35;7.93;;;;;;;;;;5093005;28;20681;-53
2024/03/21 02:32:23;;;;;;;13.30;8.02;;;;;;;;;;5092691;28;20024;-53
2024/03/21 02:34:49;;;;;;;13.48;8.40;;;;;;;;;;5092607;28;20024;-49
2024/03/21 02:37:15;;;;;;;13.35;8.02;;;;;;;;;;5093061;28;20020;-51
2024/03/21 02:39:41;;;;;;;13.48;8.40;;;;;;;;;;5093099;28;20024;-51
2024/03/21 02:42:08;;;;;;;13.80;8.88;;;;;;;;;;5092839;28;20500;-51
2024/03/21 02:44:34;;;;;;;13.90;8.90;;;;;;;;;;5092603;28;20036;-51
2024/03/21 02:47:00;;;;;;;13.40;8.10;;;;;;;;;;5091845;28;20036;-52
2024/03/21 02:49:26;;;;;;;13.35;8.02;;;;;;;;;;5093024;28;20040;-50
2024/03/21 02:51:54;;;;;;;14.23;8.93;;;;;;;;;;5092218;28;20033;-52
2024/03/21 02:54:20;;;;;;;17.02;10.63;;;;;;;;;;5092859;28;20143;-51
2024/03/21 02:56:46;;;;;;;13.90;9.27;;;;;;;;;;5094437;28;20016;-55
2024/03/21 02:59:12;;;;;;;14.45;9.07;;;;;;;;;;5076034;28;20074;-54
2024/03/21 03:01:38;;;;;;;13.52;8.50;;;;;;;;;;5092891;28;20024;-52
2024/03/21 03:04:04;;;;;;;15.00;10.18;;;;;;;;;;5091839;28;20101;-48
2024/03/21 03:06:30;;;;;;;13.38;8.18;;;;;;;;;;5092843;28;20493;-50
2024/03/21 03:08:56;;;;;;;13.60;8.75;;;;;;;;;;5093455;28;20048;-51
2024/03/21 03:11:22;;;;;;;13.45;8.18;;;;;;;;;;5092898;28;20024;-53
2024/03/21 03:13:49;;;;;;;13.38;8.25;;;;;;;;;;5092280;28;20024;-51
2024/03/21 03:16:15;;;;;;;13.50;8.32;;;;;;;;;;5092451;28;20087;-50
2024/03/21 03:18:41;;;;;;;13.60;8.65;;;;;;;;;;5092732;28;20015;-50
2024/03/21 03:21:07;;;;;;;13.65;8.95;;;;;;;;;;5092031;28;20481;-52
2024/03/21 03:23:33;;;;;;;13.60;8.82;;;;;;;;;;5091429;28;20016;-51
2024/03/21 03:25:59;;;;;;;13.63;8.77;;;;;;;;;;5092078;28;20024;-50
2024/03/21 03:28:25;;;;;;;13.70;9.00;;;;;;;;;;5091932;28;20031;-53
2024/03/21 03:30:51;;;;;;;13.68;8.90;;;;;;;;;;5092041;28;20050;-50
2024/03/21 03:36:02;;;;;;;13.70;9.00;;;;;;;;;;5092171;28;20085;-49
2024/03/21 03:38:28;;;;;;;13.68;8.90;;;;;;;;;;5092023;28;20080;-50
2024/03/21 03:40:54;;;;;;;13.55;8.55;;;;;;;;;;5091735;28;20095;-52
2024/03/21 03:43:20;;;;;;;13.57;8.70;;;;;;;;;;5091116;28;20024;-51
2024/03/21 03:45:46;;;;;;;13.63;8.90;;;;;;;;;;5091897;28;20035;-51
2024/03/21 03:48:12;;;;;;;13.70;9.07;;;;;;;;;;5091701;28;20027;-50
2024/03/21 03:50:38;;;;;;;14.00;9.60;;;;;;;;;;5091574;28;20047;-54
2024/03/21 03:53:04;;;;;;;13.50;8.57;;;;;;;;;;5090684;28;20024;-50
2024/03/21 03:55:30;;;;;;;13.90;9.52;;;;;;;;;;5073542;28;20092;-49
2024/03/21 03:57:56;;;;;;;14.75;11.10;;;;;;;;;;5091033;28;20548;-51
2024/03/21 04:00:22;;;;;;;13.63;8.90;;;;;;;;;;5091178;28;20082;-50
2024/03/21 04:02:48;;;;;;;13.57;8.77;;;;;;;;;;5090329;28;20125;-53
2024/03/21 04:05:17;;;;;;;16.63;13.45;;;;;;;;;;5090637;28;20036;-52
2024/03/21 04:07:42;;;;;;;;;;;;;;;;;;5091477;28;20019;-51
2024/03/21 04:10:09;;;;;;;18.85;14.60;;;;;;;;;;5091080;28;20000;-52
2024/03/21 04:12:35;;;;;;;20.00;12.45;;;;;;;;;;5090426;28;20042;-54
2024/03/21 04:15:01;;;;;;;14.25;9.15;;;;;;;;;;5090682;28;20020;-48
2024/03/21 04:17:27;;;;;;;13.48;8.43;;;;;;;;;;5090803;28;20134;-48
2024/03/21 04:19:53;;;;;;;13.60;8.52;;;;;;;;;;5090904;28;20019;-53
2024/03/21 04:22:19;;;;;;;13.80;8.77;;;;;;;;;;5090272;28;20396;-51
2024/03/21 04:24:47;;;;;;;22.13;12.32;;;;;;;;;;5090171;28;20020;-51
2024/03/21 04:27:13;;;;;;;18.98;11.93;;;;;;;;;;5090642;28;20024;-51
2024/03/21 04:29:39;;;;;;;15.25;9.07;;;;;;;;;;5090456;28;20024;-50
2024/03/21 04:32:05;;;;;;;16.73;11.32;;;;;;;;;;5089954;28;20029;-50
2024/03/21 04:34:31;;;;;;;16.17;11.43;;;;;;;;;;5090113;28;20472;-50
2024/03/21 04:36:57;;;;;;;19.85;12.80;;;;;;;;;;5090400;28;20016;-50
2024/03/21 04:39:23;;;;;;;16.17;10.57;;;;;;;;;;5090484;28;20036;-52
2024/03/21 04:41:49;;;;;;;17.15;12.70;;;;;;;;;;5090011;28;20470;-54
2024/03/21 04:44:15;;;;;;;16.05;11.15;;;;;;;;;;5090007;28;20024;-53
2024/03/21 04:46:41;;;;;;;13.55;8.50;;;;;;;;;;5072315;28;20073;-55
2024/03/21 04:49:07;;;;;;;31.13;19.08;;;;;;;;;;5090466;28;20020;-51
2024/03/21 04:51:33;;;;;;;21.52;15.00;;;;;;;;;;5092517;28;20082;-53
2024/03/21 04:53:59;;;;;;;13.60;8.90;;;;;;;;;;5076992;28;20065;-54
2024/03/21 04:56:25;;;;;;;16.92;12.15;;;;;;;;;;5096512;28;20028;-54
2024/03/21 04:58:53;;;;;;;21.30;12.75;;;;;;;;;;5078678;28;20052;-52
2024/03/21 05:01:19;;;;;;;17.70;10.07;;;;;;;;;;5095482;28;20024;-50
2024/03/21 05:03:45;;;;;;;13.32;7.90;;;;;;;;;;5090129;28;20085;-54
2024/03/21 05:06:11;;;;;;;22.00;14.23;;;;;;;;;;5090381;28;20044;-51
2024/03/21 05:08:37;;;;;;;24.77;14.77;;;;;;;;;;5090272;28;20028;-50
2024/03/21 05:11:03;;;;;;;14.90;9.90;;;;;;;;;;5075824;28;20085;-50
2024/03/21 05:13:29;;;;;;;19.60;14.65;;;;;;;;;;5093645;28;20033;-50
2024/03/21 05:15:55;;;;;;;19.58;13.02;;;;;;;;;;5094366;28;20023;-48
2024/03/21 05:18:20;;;;;;;13.80;8.98;;;;;;;;;;5094195;28;20020;-50
2024/03/21 05:20:46;;;;;;;28.30;18.13;;;;;;;;;;5094098;28;20090;-50
2024/03/21 05:23:12;;;;;;;22.45;15.43;;;;;;;;;;5093833;28;20036;-53
2024/03/21 05:25:39;;;;;;;20.13;12.15;;;;;;;;;;5094450;28;20055;-49
2024/03/21 05:28:05;;;;;;;19.85;13.13;;;;;;;;;;5093999;28;20099;-52
2024/03/21 05:30:31;;;;;;;16.65;12.35;;;;;;;;;;5093887;28;20640;-48
2024/03/21 05:32:57;;;;;;;13.45;8.50;;;;;;;;;;5074874;28;20386;-51
2024/03/21 05:35:24;;;;;;;14.07;9.63;;;;;;;;;;5093670;28;20083;-51
2024/03/21 05:37:49;;;;;;;18.95;11.45;;;;;;;;;;5093502;28;20028;-53
2024/03/21 05:40:15;;;;;;;16.20;12.07;;;;;;;;;;5093828;28;20095;-51
2024/03/21 05:42:44;;;;;;;13.88;8.77;;;;;;;;;;5074800;28;20435;-48
2024/03/21 05:45:10;;;;;;;15.00;10.65;;;;;;;;;;5093646;28;20165;-48
2024/03/21 05:47:36;;;;;;;19.35;12.75;;;;;;;;;;5093605;28;20488;-52
2024/03/21 05:50:03;;;;;;;14.25;9.10;;;;;;;;;;5093447;28;20056;-51
2024/03/21 05:52:29;;;;;;;16.77;11.70;;;;;;;;;;5092582;28;20445;-50
2024/03/21 05:54:55;;;;;;;14.20;9.63;;;;;;;;;;5075175;28;20105;-52
2024/03/21 05:57:23;;;;;;;19.98;12.60;;;;;;;;;;5093504;28;20111;-55
2024/03/21 05:59:53;;;;;;;13.73;9.40;;;;;;;;;;5093246;28;20016;-52
2024/03/21 06:02:19;;;;;;;21.00;13.07;;;;;;;;;;5093006;28;20406;-51
2024/03/21 06:04:45;;;;;;;13.85;9.07;;;;;;;;;;5092978;28;20020;-53
2024/03/21 06:07:11;;;;;;;17.77;11.02;;;;;;;;;;5094068;28;20026;-51
2024/03/21 06:09:37;;;;;;;18.20;9.70;;;;;;;;;;5093267;28;20111;-49
2024/03/21 06:12:03;;;;;;;18.98;11.23;;;;;;;;;;5092851;28;20020;-50
2024/03/21 06:14:29;;;;;;;14.43;9.70;;;;;;;;;;5092789;28;20020;-50
2024/03/21 06:16:56;;;;;;;19.15;13.98;;;;;;;;;;5075001;28;20034;-50
2024/03/21 06:19:22;;;;;;;13.55;8.57;;;;;;;;;;5074852;28;20024;-48
2024/03/21 06:21:48;;;;;;;14.32;8.98;;;;;;;;;;5092585;28;20024;-49
2024/03/21 06:24:14;;;;;;;17.00;10.88;;;;;;;;;;5092099;28;20024;-49
2024/03/21 06:26:40;;;;;;;15.55;11.00;;;;;;;;;;5074254;28;20050;-52
2024/03/21 06:29:06;;;;;;;16.40;11.40;;;;;;;;;;5092879;28;20095;-52
2024/03/21 06:31:32;;;;;;;19.67;9.55;;;;;;;;;;5092367;28;20036;-53
2024/03/21 06:33:59;;;;;;;16.60;11.25;;;;;;;;;;5082402;22;20433;-57
2024/03/21 06:36:25;;;;;;;15.18;9.15;;;;;;;;;;5051180;28;20115;-54
2024/03/21 06:38:51;;;;;;;17.52;11.48;;;;;;;;;;5032995;28;20025;-55
2024/03/21 06:41:18;;;;;;;16.65;10.85;;;;;;;;;;5050732;28;20021;-55
2024/03/21 06:43:45;;;;;;;14.40;9.32;;;;;;;;;;5050457;28;20033;-54
2024/03/21 06:46:11;;;;;;;15.60;11.45;;;;;;;;;;5050635;28;20029;-58
2024/03/21 06:48:37;;;;;;;14.48;9.35;;;;;;;;;;5051530;28;20029;-53
2024/03/21 06:51:07;;;;;;;15.13;9.65;;;;;;;;;;5032882;28;20159;-55
2024/03/21 06:53:33;;;;;;;13.57;8.70;;;;;;;;;;5049760;28;20119;-53
2024/03/21 06:56:00;;;;;;;14.85;9.82;;;;;;;;;;5032725;28;20033;-56
2024/03/21 06:58:27;;;;;;;14.30;10.43;;;;;;;;;;5032962;28;20116;-57
2024/03/21 07:00:53;;;;;;;13.82;9.20;;;;;;;;;;5032677;28;20025;-56
2024/03/21 07:03:19;;;;;;;13.55;8.70;;;;;;;;;;5031858;28;20036;-57
2024/03/21 07:05:45;;;;;;;13.70;8.90;;;;;;;;;;5048056;28;20434;-55
2024/03/21 07:08:11;;;;;;;13.60;8.80;;;;;;;;;;5032487;28;20410;-57
2024/03/21 07:10:37;;;;;;;13.70;8.98;;;;;;;;;;5050660;28;20032;-59
2024/03/21 07:13:04;;;;;;;13.60;8.63;;;;;;;;;;5044447;28;20021;-58
2024/03/21 07:15:30;;;;;;;15.20;9.70;;;;;;;;;;5030450;28;20072;-59
2024/03/21 07:17:55;;;;;;;13.55;8.65;;;;;;;;;;5030312;28;20017;-56
2024/03/21 07:20:22;;;;;;;13.63;8.60;;;;;;;;;;5030571;28;20018;-56
2024/03/21 07:22:49;;;;;;;13.48;8.38;;;;;;;;;;5044595;28;20085;-53
2024/03/21 07:25:15;;;;;;;13.52;8.60;;;;;;;;;;5050393;28;20071;-57
2024/03/21 07:27:42;;;;;;;14.10;9.40;;;;;;;;;;5050614;28;20125;-58
2024/03/21 07:30:11;;;;;;;13.65;8.70;;;;;;;;;;5032476;28;20032;-58
2024/03/21 07:32:37;;;;;;;13.80;9.20;;;;;;;;;;5030782;28;20024;-52
2024/03/21 07:35:04;;;;;;;13.68;8.93;;;;;;;;;;5050342;28;20021;-51
2024/03/21 07:37:30;;;;;;;14.20;10.35;;;;;;;;;;5050515;28;20036;-55
2024/03/21 07:39:56;;;;;;;17.70;11.50;;;;;;;;;;5034533;28;20029;-55
2024/03/21 07:42:22;;;;;;;16.05;11.25;;;;;;;;;;5029994;28;20495;-54
2024/03/21 07:44:48;;;;;;;17.70;11.13;;;;;;;;;;5029858;28;20030;-50
2024/03/21 07:47:14;;;;;;;24.15;11.63;;;;;;;;;;5012221;28;20448;-54
2024/03/21 07:49:40;;;;;;;14.35;9.02;;;;;;;;;;5030573;28;20067;-57
2024/03/21 07:52:06;;;;;;;13.60;8.70;;;;;;;;;;5029607;28;20053;-51
2024/03/21 07:54:33;;;;;;;13.55;8.50;;;;;;;;;;5029585;28;20025;-56
2024/03/21 07:56:59;;;;;;;17.25;10.15;;;;;;;;;;5029064;28;20033;-55
2024/03/21 07:59:25;;;;;;;15.75;9.27;;;;;;;;;;5029963;28;20075;-57
2024/03/21 08:01:51;;;;;;;13.40;8.10;;;;;;;;;;5029542;28;20508;-52
2024/03/21 08:04:18;;;;;;;13.38;8.10;;;;;;;;;;5032051;28;20029;-57
2024/03/21 08:06:45;;;;;;;14.07;9.48;;;;;;;;;;5050002;28;20071;-56
2024/03/21 08:09:11;;;;;;;14.25;9.40;;;;;;;;;;5049802;28;20098;-57
2024/03/21 08:11:37;;;;;;;14.43;9.52;;;;;;;;;;5049656;28;20032;-56
2024/03/21 08:14:03;;;;;;;13.80;8.48;;;;;;;;;;5049695;28;20025;-54
2024/03/21 08:16:29;;;;;;;14.85;10.13;;;;;;;;;;5049309;28;20024;-54
2024/03/21 08:18:55;;;;;;;17.60;11.13;;;;;;;;;;5049862;28;20036;-54
2024/03/21 08:21:21;;;;;;;13.70;9.10;;;;;;;;;;5050327;28;20021;-55
2024/03/21 08:23:50;;;;;;;17.20;10.07;;;;;;;;;;5049010;28;20076;-57
2024/03/21 08:26:17;;;;;;;;;;;;;;;;;;5050199;28;20086;-58
2024/03/21 08:28:43;;;;;;;14.10;9.50;;;;;;;;;;5049596;28;20374;-59
2024/03/21 08:31:09;;;;;;;16.55;11.00;;;;;;;;;;5049026;28;20533;-54
2024/03/21 08:33:35;;;;;;;15.82;10.95;;;;;;;;;;5048702;28;20060;-54
2024/03/21 08:36:00;;;;;;;14.00;9.00;;;;;;;;;;5049541;28;20025;-54
2024/03/21 08:38:26;;;;;;;15.80;10.95;;;;;;;;;;5049653;28;20155;-56
2024/03/21 08:40:53;;;;;;;13.68;9.00;;;;;;;;;;5049381;28;20040;-54
2024/03/21 08:43:19;;;;;;;18.80;12.52;;;;;;;;;;5048304;28;20060;-54
2024/03/21 08:45:46;;;;;;;14.43;9.88;;;;;;;;;;5049004;28;20564;-56
2024/03/21 08:48:13;;;;;;;13.90;9.20;;;;;;;;;;5049586;28;20104;-55
2024/03/21 08:50:39;;;;;;;14.77;9.55;;;;;;;;;;5031615;28;20052;-52
2024/03/21 08:53:06;;;;;;;16.08;11.00;;;;;;;;;;5048721;28;20049;-55
2024/03/21 08:55:33;;;;;;;14.65;10.63;;;;;;;;;;5049428;28;20067;-55
2024/03/21 08:57:59;;;;;;;15.25;9.70;;;;;;;;;;5049402;28;20122;-51
2024/03/21 09:00:25;;;;;;;14.40;9.55;;;;;;;;;;5048849;28;20025;-54
2024/03/21 09:02:51;;;;;;;13.85;8.52;;;;;;;;;;5048168;28;20021;-56
2024/03/21 09:05:17;;;;;;;13.57;8.32;;;;;;;;;;5048909;28;20361;-55
2024/03/21 09:07:43;;;;;;;13.60;8.98;;;;;;;;;;5048531;28;20033;-54
2024/03/21 09:10:09;;;;;;;13.88;8.95;;;;;;;;;;5048689;28;20406;-56
2024/03/21 09:12:35;;;;;;;21.67;8.80;;;;;;;;;;5047924;28;20029;-55
2024/03/21 09:15:01;;;;;;;13.65;8.80;;;;;;;;;;5048762;28;20032;-52
2024/03/21 09:17:27;;;;;;;13.57;8.55;;;;;;;;;;5049190;28;20045;-55
2024/03/21 09:19:53;;;;;;;14.18;8.88;;;;;;;;;;5048939;28;20025;-54
2024/03/21 09:22:19;;;;;;;13.75;9.02;;;;;;;;;;5048509;28;20117;-55
2024/03/21 09:24:46;;;;;;;13.80;8.90;;;;;;;;;;5048338;28;20029;-54
2024/03/21 09:27:12;;;;;;;13.60;8.70;;;;;;;;;;5048858;28;20024;-52
2024/03/21 09:29:38;;;;;;;13.60;8.60;;;;;;;;;;5048715;28;20028;-54
2024/03/21 09:32:04;;;;;;;13.65;8.85;;;;;;;;;;5048232;28;20053;-49
2024/03/21 09:34:30;;;;;;;13.70;8.98;;;;;;;;;;5048040;28;20043;-54
2024/03/21 09:36:56;;;;;;;13.50;8.70;;;;;;;;;;5048585;28;20032;-56
2024/03/21 09:39:22;;;;;;;14.32;8.82;;;;;;;;;;5048416;28;20029;-56
2024/03/21 09:41:51;;;;;;;13.63;8.68;;;;;;;;;;5047983;28;20487;-50
2024/03/21 09:44:18;;;;;;;13.60;8.73;;;;;;;;;;5048160;28;20029;-56
2024/03/21 09:46:46;;;;;;;13.73;8.98;;;;;;;;;;5048545;28;20562;-57
2024/03/21 09:49:13;;;;;;;13.40;8.45;;;;;;;;;;5048429;28;20086;-57
2024/03/21 09:51:40;;;;;;;13.70;9.00;;;;;;;;;;5048368;28;20112;-54
2024/03/21 09:54:10;;;;;;;13.55;8.55;;;;;;;;;;5048172;28;20109;-55
2024/03/21 09:56:36;;;;;;;13.48;8.30;;;;;;;;;;5051791;28;20025;-54
2024/03/21 09:59:02;;;;;;;13.50;8.50;;;;;;;;;;5052388;28;20025;-53
2024/03/21 10:01:28;;;;;;;13.68;9.02;;;;;;;;;;5052384;28;20069;-53
2024/03/21 10:03:56;;;;;;;13.57;8.63;;;;;;;;;;5052203;28;20066;-57
2024/03/21 10:06:23;;;;;;;13.88;9.15;;;;;;;;;;5052505;28;20032;-56
2024/03/21 10:08:50;;;;;;;13.88;9.40;;;;;;;;;;5052134;28;20044;-56
2024/03/21 10:11:16;;;;;;;13.60;8.73;;;;;;;;;;5050833;28;20106;-53
2024/03/21 10:13:42;;;;;;;15.10;9.50;;;;;;;;;;5051655;28;20255;-53
2024/03/21 10:16:12;;;;;;;14.30;9.30;;;;;;;;;;5050794;28;20628;-54
2024/03/21 10:18:44;;;;;;;13.65;8.85;;;;;;;;;;5052116;28;20032;-56
2024/03/21 10:21:14;;;;;;;13.68;9.05;;;;;;;;;;5052272;28;20502;-56
2024/03/21 10:23:40;;;;;;;14.20;9.23;;;;;;;;;;5051528;28;20013;-53
2024/03/21 10:26:15;;;;;;;13.60;8.80;;;;;;;;;;5051767;28;20033;-61
2024/03/21 10:28:42;;;;;;;13.52;8.50;;;;;;;;;;5051900;28;20514;-55
2024/03/21 10:31:11;;;;;;;13.68;8.90;;;;;;;;;;5051484;28;20040;-57
2024/03/21 10:33:38;;;;;;;13.52;8.45;;;;;;;;;;5050871;28;20044;-51
2024/03/21 10:36:04;;;;;;;13.68;8.90;;;;;;;;;;5051329;28;20112;-54
2024/03/21 10:38:30;;;;;;;13.48;8.45;;;;;;;;;;5051780;28;20479;-54
2024/03/21 10:40:58;;;;;;;18.55;8.90;;;;;;;;;;5050705;28;20032;-53
2024/03/21 10:43:25;;;;;;;13.55;8.45;;;;;;;;;;5050709;28;20487;-57
2024/03/21 10:45:51;;;;;;;13.75;9.00;;;;;;;;;;5051492;28;20378;-56
2024/03/21 10:48:28;;;;;;;14.10;9.70;;;;;;;;;;5051359;28;20479;-55
2024/03/21 10:50:54;;;;;;;13.77;9.10;;;;;;;;;;5051379;28;20029;-56
2024/03/21 10:53:21;;;;;;;13.80;9.18;;;;;;;;;;5050617;28;20029;-55
2024/03/21 10:55:51;;;;;;;13.88;9.35;;;;;;;;;;5051071;28;20021;-53
2024/03/21 10:58:17;;;;;;;13.75;9.00;;;;;;;;;;5050535;28;20546;-54
2024/03/21 11:00:50;;;;;;;14.50;9.48;;;;;;;;;;5051253;28;20069;-55
2024/03/21 11:03:16;;;;;;;13.90;9.30;;;;;;;;;;5050431;28;20108;-55
2024/03/21 11:05:43;;;;;;;13.68;8.82;;;;;;;;;;5051010;28;20052;-55
2024/03/21 11:08:24;;;;;;;13.90;9.02;;;;;;;;;;5050180;28;20021;-56
2024/03/21 11:10:50;;;;;;;13.60;8.60;;;;;;;;;;5049964;28;20420;-55
2024/03/21 11:13:16;;;;;;;13.75;8.70;;;;;;;;;;5049330;28;20029;-53
2024/03/21 11:15:42;;;;;;;13.80;8.90;;;;;;;;;;5050865;28;20048;-52
2024/03/21 11:18:10;;;;;;;13.60;8.80;;;;;;;;;;5050747;28;20072;-57
2024/03/21 11:20:36;;;;;;;14.30;9.40;;;;;;;;;;5050717;28;20094;-51
2024/03/21 11:23:02;;;;;;;13.68;8.90;;;;;;;;;;5050156;28;20036;-55
2024/03/21 11:25:28;;;;;;;14.45;9.98;;;;;;;;;;5051128;28;20368;-56
2024/03/21 11:27:56;;;;;;;13.68;9.02;;;;;;;;;;5049249;28;20475;-52
2024/03/21 11:30:22;;;;;;;13.73;8.98;;;;;;;;;;5050173;28;20029;-56
2024/03/21 11:32:48;;;;;;;13.65;8.88;;;;;;;;;;5049360;28;20487;-53
2024/03/21 11:35:14;;;;;;;13.70;8.90;;;;;;;;;;5050622;28;20029;-53
2024/03/21 11:37:41;;;;;;;13.55;8.50;;;;;;;;;;5050420;28;20059;-53
2024/03/21 11:40:07;;;;;;;14.50;10.05;;;;;;;;;;5050274;28;20017;-55
2024/03/21 11:42:34;;;;;;;13.68;9.02;;;;;;;;;;5049158;28;20068;-56
2024/03/21 11:45:00;;;;;;;13.55;8.60;;;;;;;;;;5050518;28;20032;-53
2024/03/21 11:47:26;;;;;;;13.68;8.90;;;;;;;;;;5048916;28;20025;-54
2024/03/21 11:49:53;;;;;;;13.60;8.70;;;;;;;;;;5050318;28;20036;-57
2024/03/21 11:52:19;;;;;;;13.63;8.88;;;;;;;;;;5048193;28;20063;-55
2024/03/21 11:54:45;;;;;;;14.30;9.77;;;;;;;;;;5049991;28;20475;-55
2024/03/21 11:57:12;;;;;;;13.57;8.63;;;;;;;;;;5051705;28;20565;-54
2024/03/21 11:59:41;;;;;;;13.85;9.40;;;;;;;;;;5049739;28;20375;-56
2024/03/21 12:02:13;;;;;;;14.00;8.90;;;;;;;;;;5051158;28;20105;-55
2024/03/21 12:04:40;;;;;;;14.10;9.27;;;;;;;;;;5050907;28;20029;-53
2024/03/21 12:07:08;;;;;;;14.48;9.38;;;;;;;;;;5051632;28;20100;-55
2024/03/21 12:09:34;;;;;;;13.57;8.68;;;;;;;;;;5051234;28;20028;-55
2024/03/21 12:12:00;;;;;;;13.38;8.10;;;;;;;;;;5050737;28;20459;-53
2024/03/21 12:14:26;;;;;;;13.48;8.20;;;;;;;;;;5049215;28;20025;-50
2024/03/21 12:16:52;;;;;;;13.57;8.65;;;;;;;;;;5050217;28;20027;-52
2024/03/21 12:19:19;;;;;;;14.45;10.45;;;;;;;;;;5049487;28;20040;-54
2024/03/21 12:21:45;;;;;;;13.60;8.68;;;;;;;;;;5047988;28;20027;-54
2024/03/21 12:24:11;;;;;;;13.70;8.98;;;;;;;;;;5047431;28;20071;-52
2024/03/21 12:26:37;;;;;;;13.73;8.90;;;;;;;;;;5049128;28;20394;-53
2024/03/21 12:29:03;;;;;;;13.43;8.40;;;;;;;;;;5049790;28;20517;-53
2024/03/21 12:31:29;;;;;;;13.50;8.60;;;;;;;;;;5049465;28;20056;-50
2024/03/21 12:33:58;;;;;;;13.52;8.68;;;;;;;;;;5071243;22;20045;-49
2024/03/21 12:36:24;;;;;;;13.75;9.05;;;;;;;;;;5070022;28;20051;-49
2024/03/21 12:38:50;;;;;;;13.60;8.90;;;;;;;;;;5052204;28;20021;-48
2024/03/21 12:41:16;;;;;;;14.52;10.20;;;;;;;;;;5070149;28;20498;-50
2024/03/21 12:43:42;;;;;;;13.70;8.95;;;;;;;;;;5069637;28;20253;-46
2024/03/21 12:46:09;;;;;;;13.63;8.80;;;;;;;;;;5058588;28;20037;-49
2024/03/21 12:48:36;;;;;;;13.68;8.98;;;;;;;;;;5049844;28;20406;-52
2024/03/21 12:51:03;;;;;;;15.45;9.60;;;;;;;;;;5049918;28;20458;-49
2024/03/21 12:53:29;;;;;;;13.82;9.30;;;;;;;;;;5052568;28;20106;-50
2024/03/21 12:55:55;;;;;;;13.65;9.00;;;;;;;;;;5049809;28;20619;-53
2024/03/21 12:58:22;;;;;;;13.82;9.27;;;;;;;;;;5049705;28;20770;-51
2024/03/21 13:00:48;;;;;;;13.90;9.70;;;;;;;;;;5049911;28;20405;-52
2024/03/21 13:03:14;;;;;;;13.73;9.02;;;;;;;;;;5049067;28;20037;-49
2024/03/21 13:05:42;;;;;;;13.98;9.45;;;;;;;;;;5049973;28;20025;-49
2024/03/21 13:08:08;;;;;;;13.95;9.50;;;;;;;;;;5049935;28;20438;-47
2024/03/21 13:10:34;;;;;;;13.77;9.23;;;;;;;;;;5049595;28;20605;-50
2024/03/21 13:13:00;;;;;;;13.75;9.10;;;;;;;;;;5047412;28;20083;-50
2024/03/21 13:15:26;;;;;;;13.57;8.77;;;;;;;;;;5048580;28;20466;-45
2024/03/21 13:17:52;;;;;;;14.30;10.23;;;;;;;;;;5049787;28;20054;-49
2024/03/21 13:20:20;;;;;;;13.68;8.98;;;;;;;;;;5048239;28;20017;-48
2024/03/21 13:22:46;;;;;;;14.40;9.98;;;;;;;;;;5048669;28;20096;-49
2024/03/21 13:25:21;;;;;;;13.98;9.68;;;;;;;;;;5048255;28;20017;-48
2024/03/21 13:27:48;;;;;;;14.52;9.52;;;;;;;;;;5049552;28;20031;-52
2024/03/21 13:30:14;;;;;;;13.73;9.10;;;;;;;;;;5049576;28;20056;-50
2024/03/21 13:32:41;;;;;;;13.98;9.63;;;;;;;;;;5052763;28;20029;-50
2024/03/21 13:35:08;;;;;;;13.85;9.32;;;;;;;;;;5053280;28;20104;-51
2024/03/21 13:37:34;;;;;;;14.60;10.23;;;;;;;;;;5055299;28;20032;-50
2024/03/21 13:40:00;;;;;;;13.88;9.48;;;;;;;;;;5053637;28;20025;-53
2024/03/21 13:42:26;;;;;;;14.30;9.95;;;;;;;;;;5051238;28;20059;-53
2024/03/21 13:44:52;;;;;;;13.90;9.57;;;;;;;;;;5053108;28;20081;-50
2024/03/21 13:47:18;;;;;;;14.02;9.70;;;;;;;;;;5053048;28;20033;-51
2024/03/21 13:49:44;;;;;;;16.52;12.57;;;;;;;;;;5052890;28;20028;-53
2024/03/21 13:52:10;;;;;;;13.90;9.48;;;;;;;;;;5051004;28;20040;-52
2024/03/21 13:54:36;;;;;;;13.85;9.43;;;;;;;;;;5052168;28;20013;-53
2024/03/21 13:57:06;;;;;;;13.88;9.45;;;;;;;;;;5051567;28;20429;-53
2024/03/21 13:59:37;;;;;;;13.73;9.10;;;;;;;;;;5051036;28;20029;-54
2024/03/21 14:02:03;;;;;;;13.65;8.88;;;;;;;;;;5052208;28;20057;-52
2024/03/21 14:04:29;;;;;;;13.73;9.18;;;;;;;;;;5052428;28;20021;-55
2024/03/21 14:06:55;;;;;;;13.77;9.25;;;;;;;;;;5051084;28;20566;-53
2024/03/21 14:09:22;;;;;;;13.75;9.00;;;;;;;;;;5060531;28;20050;-48
2024/03/21 14:11:48;;;;;;;13.70;8.93;;;;;;;;;;5061052;28;20025;-49
2024/03/21 14:14:14;;;;;;;19.38;10.15;;;;;;;;;;5061192;28;20017;-51
2024/03/21 14:16:41;;;;;;;14.32;9.38;;;;;;;;;;5062833;28;20376;-53
2024/03/21 14:19:07;;;;;;;13.70;8.90;;;;;;;;;;5060939;28;20016;-56
2024/03/21 14:21:33;;;;;;;13.80;9.30;;;;;;;;;;5066382;28;20039;-49
2024/03/21 14:23:59;;;;;;;13.68;8.88;;;;;;;;;;5071696;28;20394;-49
2024/03/21 14:26:25;;;;;;;13.63;8.70;;;;;;;;;;5072737;28;20021;-54